首页
METAR-TAF:

METAR-TAF

机场 :

Cap Skirring, 塞内加尔

纬度: 12-24N, 经度: 016-45W, 海拔: 16米

当前天气观测

该预报发布于29分钟前的21:00 UTC
风速4节,风向西
温度 29°C
湿度 79%
气压 1011 hPa
能见度10公里或以上
1500米以下无云,无积雨云

METAR: GOGS 232100Z 28004KT CAVOK 29/25 Q1011

时间: 21:29 (21:29 UTC)

预报

该预报发布于4小时和29分钟前的17:00 UTC
预报有效从23日的 18点(UTC)到 24日的 18点(UTC)
风速5节,风向西
能见度10公里或以上
散云层高于1400英尺

TAF: GOGS 231700Z 2318/2418 26005KT 9999 SCT014

超过4000个机场的气象观测和天气预报(METAR&TAF报告)。

可查询的气象台以黄色和红色小点在地图上表示。

将鼠标移到小点上方,可查看气象台名称。

然后点击查看天气观测和预报。

如需切换地图:点击带黑十字的绿色按钮放大地图;点击带横线的绿色按钮缩小地图;或者点击绿色箭头查看邻近地区的地图。


METAR-TAF: